sensor_id;sensor_type;location;lat;lon;timestamp;P1;durP1;ratioP1;P2;durP2;ratioP2
54235;SDS011;40151;43.606;1.472;2022-07-17T00:00:46;2.83;;;1.70;;
54235;SDS011;40151;43.606;1.472;2022-07-17T00:03:12;2.50;;;1.70;;
54235;SDS011;40151;43.606;1.472;2022-07-17T00:05:39;2.78;;;1.90;;
54235;SDS011;40151;43.606;1.472;2022-07-17T00:08:06;2.40;;;1.65;;
54235;SDS011;40151;43.606;1.472;2022-07-17T00:10:36;2.90;;;1.65;;
54235;SDS011;40151;43.606;1.472;2022-07-17T00:13:04;2.55;;;1.90;;
54235;SDS011;40151;43.606;1.472;2022-07-17T00:15:30;2.75;;;1.98;;
54235;SDS011;40151;43.606;1.472;2022-07-17T00:17:56;2.20;;;1.50;;
54235;SDS011;40151;43.606;1.472;2022-07-17T00:20:22;3.22;;;2.00;;
54235;SDS011;40151;43.606;1.472;2022-07-17T00:22:51;2.05;;;1.40;;
54235;SDS011;40151;43.606;1.472;2022-07-17T00:25:19;2.10;;;1.40;;
54235;SDS011;40151;43.606;1.472;2022-07-17T00:27:45;2.42;;;1.60;;
54235;SDS011;40151;43.606;1.472;2022-07-17T00:30:10;2.88;;;1.70;;
54235;SDS011;40151;43.606;1.472;2022-07-17T00:32:37;2.13;;;1.40;;
54235;SDS011;40151;43.606;1.472;2022-07-17T00:35:03;3.63;;;1.88;;
54235;SDS011;40151;43.606;1.472;2022-07-17T00:37:29;2.50;;;1.60;;
54235;SDS011;40151;43.606;1.472;2022-07-17T00:39:55;2.28;;;1.60;;
54235;SDS011;40151;43.606;1.472;2022-07-17T00:42:20;3.47;;;1.95;;
54235;SDS011;40151;43.606;1.472;2022-07-17T00:44:46;2.20;;;1.50;;
54235;SDS011;40151;43.606;1.472;2022-07-17T00:47:19;2.65;;;1.48;;
54235;SDS011;40151;43.606;1.472;2022-07-17T00:49:46;3.55;;;1.60;;
54235;SDS011;40151;43.606;1.472;2022-07-17T00:52:13;2.08;;;1.65;;
54235;SDS011;40151;43.606;1.472;2022-07-17T00:54:40;2.35;;;1.80;;
54235;SDS011;40151;43.606;1.472;2022-07-17T00:57:09;2.50;;;1.60;;
54235;SDS011;40151;43.606;1.472;2022-07-17T00:59:36;2.95;;;1.67;;
54235;SDS011;40151;43.606;1.472;2022-07-17T01:02:05;2.60;;;1.50;;
54235;SDS011;40151;43.606;1.472;2022-07-17T01:04:32;2.30;;;1.50;;
54235;SDS011;40151;43.606;1.472;2022-07-17T01:06:59;2.65;;;1.85;;
54235;SDS011;40151;43.606;1.472;2022-07-17T01:09:26;2.72;;;1.73;;
54235;SDS011;40151;43.606;1.472;2022-07-17T01:11:52;2.53;;;1.70;;
54235;SDS011;40151;43.606;1.472;2022-07-17T01:14:18;2.45;;;1.60;;
54235;SDS011;40151;43.606;1.472;2022-07-17T01:16:44;2.67;;;1.73;;
54235;SDS011;40151;43.606;1.472;2022-07-17T01:19:10;2.05;;;1.50;;
54235;SDS011;40151;43.606;1.472;2022-07-17T01:21:39;2.83;;;1.90;;
54235;SDS011;40151;43.606;1.472;2022-07-17T01:24:06;2.63;;;1.50;;
54235;SDS011;40151;43.606;1.472;2022-07-17T01:26:32;3.20;;;1.90;;
54235;SDS011;40151;43.606;1.472;2022-07-17T01:28:57;2.78;;;1.88;;
54235;SDS011;40151;43.606;1.472;2022-07-17T01:31:23;2.28;;;1.75;;
54235;SDS011;40151;43.606;1.472;2022-07-17T01:33:49;1.92;;;1.42;;
54235;SDS011;40151;43.606;1.472;2022-07-17T01:36:14;2.53;;;1.65;;
54235;SDS011;40151;43.606;1.472;2022-07-17T01:38:40;2.67;;;1.67;;
54235;SDS011;40151;43.606;1.472;2022-07-17T01:41:06;2.13;;;1.70;;
54235;SDS011;40151;43.606;1.472;2022-07-17T01:43:31;2.97;;;1.50;;
54235;SDS011;40151;43.606;1.472;2022-07-17T01:45:57;2.50;;;1.65;;
54235;SDS011;40151;43.606;1.472;2022-07-17T01:48:26;2.83;;;1.65;;
54235;SDS011;40151;43.606;1.472;2022-07-17T01:50:54;2.33;;;1.75;;
54235;SDS011;40151;43.606;1.472;2022-07-17T01:53:20;2.53;;;1.73;;
54235;SDS011;40151;43.606;1.472;2022-07-17T01:55:46;3.33;;;1.80;;
54235;SDS011;40151;43.606;1.472;2022-07-17T01:58:12;2.50;;;1.50;;
54235;SDS011;40151;43.606;1.472;2022-07-17T02:00:39;2.53;;;1.80;;
54235;SDS011;40151;43.606;1.472;2022-07-17T02:03:05;2.55;;;1.42;;
54235;SDS011;40151;43.606;1.472;2022-07-17T02:05:31;2.70;;;1.88;;
54235;SDS011;40151;43.606;1.472;2022-07-17T02:07:56;2.03;;;1.50;;
54235;SDS011;40151;43.606;1.472;2022-07-17T02:10:22;2.17;;;1.50;;
54235;SDS011;40151;43.606;1.472;2022-07-17T02:12:48;2.10;;;1.50;;
54235;SDS011;40151;43.606;1.472;2022-07-17T02:15:14;2.45;;;1.67;;
54235;SDS011;40151;43.606;1.472;2022-07-17T02:17:40;2.30;;;1.63;;
54235;SDS011;40151;43.606;1.472;2022-07-17T02:20:06;2.67;;;1.58;;
54235;SDS011;40151;43.606;1.472;2022-07-17T02:22:33;2.95;;;1.60;;
54235;SDS011;40151;43.606;1.472;2022-07-17T02:25:00;2.10;;;1.60;;
54235;SDS011;40151;43.606;1.472;2022-07-17T02:27:25;2.63;;;1.90;;
54235;SDS011;40151;43.606;1.472;2022-07-17T02:29:51;3.60;;;1.85;;
54235;SDS011;40151;43.606;1.472;2022-07-17T02:32:17;2.90;;;1.85;;
54235;SDS011;40151;43.606;1.472;2022-07-17T02:34:42;2.47;;;1.42;;
54235;SDS011;40151;43.606;1.472;2022-07-17T02:37:08;3.85;;;1.58;;
54235;SDS011;40151;43.606;1.472;2022-07-17T02:39:33;2.55;;;1.85;;
54235;SDS011;40151;43.606;1.472;2022-07-17T02:41:59;2.60;;;1.55;;
54235;SDS011;40151;43.606;1.472;2022-07-17T02:44:24;2.97;;;2.00;;
54235;SDS011;40151;43.606;1.472;2022-07-17T02:46:50;2.78;;;1.75;;
54235;SDS011;40151;43.606;1.472;2022-07-17T02:49:15;3.17;;;1.90;;
54235;SDS011;40151;43.606;1.472;2022-07-17T02:51:41;3.10;;;1.60;;
54235;SDS011;40151;43.606;1.472;2022-07-17T02:54:06;3.03;;;1.98;;
54235;SDS011;40151;43.606;1.472;2022-07-17T02:56:32;3.22;;;1.80;;
54235;SDS011;40151;43.606;1.472;2022-07-17T02:58:57;2.60;;;1.60;;
54235;SDS011;40151;43.606;1.472;2022-07-17T03:01:23;2.92;;;1.98;;
54235;SDS011;40151;43.606;1.472;2022-07-17T03:03:49;2.78;;;1.77;;
54235;SDS011;40151;43.606;1.472;2022-07-17T03:06:14;2.80;;;1.88;;
54235;SDS011;40151;43.606;1.472;2022-07-17T03:08:40;2.40;;;1.70;;
54235;SDS011;40151;43.606;1.472;2022-07-17T03:11:06;1.90;;;1.50;;
54235;SDS011;40151;43.606;1.472;2022-07-17T03:13:31;2.53;;;1.80;;
54235;SDS011;40151;43.606;1.472;2022-07-17T03:15:57;3.65;;;1.92;;
54235;SDS011;40151;43.606;1.472;2022-07-17T03:18:22;2.85;;;1.90;;
54235;SDS011;40151;43.606;1.472;2022-07-17T03:20:48;3.35;;;2.10;;
54235;SDS011;40151;43.606;1.472;2022-07-17T03:23:14;2.70;;;1.85;;
54235;SDS011;40151;43.606;1.472;2022-07-17T03:25:39;2.67;;;1.83;;
54235;SDS011;40151;43.606;1.472;2022-07-17T03:28:05;2.72;;;1.90;;
54235;SDS011;40151;43.606;1.472;2022-07-17T03:30:30;2.63;;;1.75;;
54235;SDS011;40151;43.606;1.472;2022-07-17T03:32:56;3.05;;;1.80;;
54235;SDS011;40151;43.606;1.472;2022-07-17T03:35:21;2.78;;;1.90;;
54235;SDS011;40151;43.606;1.472;2022-07-17T03:37:47;2.45;;;1.63;;
54235;SDS011;40151;43.606;1.472;2022-07-17T03:40:13;3.25;;;1.77;;
54235;SDS011;40151;43.606;1.472;2022-07-17T03:42:39;3.83;;;2.10;;
54235;SDS011;40151;43.606;1.472;2022-07-17T03:45:04;2.88;;;2.00;;
54235;SDS011;40151;43.606;1.472;2022-07-17T03:47:32;2.55;;;1.75;;
54235;SDS011;40151;43.606;1.472;2022-07-17T03:49:57;2.47;;;1.80;;
54235;SDS011;40151;43.606;1.472;2022-07-17T03:52:23;3.42;;;1.95;;
54235;SDS011;40151;43.606;1.472;2022-07-17T03:54:48;2.40;;;1.60;;
54235;SDS011;40151;43.606;1.472;2022-07-17T03:57:14;2.83;;;2.08;;
54235;SDS011;40151;43.606;1.472;2022-07-17T03:59:43;3.28;;;1.80;;
54235;SDS011;40151;43.606;1.472;2022-07-17T04:04:56;3.15;;;2.08;;
54235;SDS011;40151;43.606;1.472;2022-07-17T04:07:21;4.57;;;1.92;;
54235;SDS011;40151;43.606;1.472;2022-07-17T04:09:56;2.67;;;1.90;;
54235;SDS011;40151;43.606;1.472;2022-07-17T04:12:23;3.55;;;1.98;;
54235;SDS011;40151;43.606;1.472;2022-07-17T04:14:49;2.95;;;2.00;;
54235;SDS011;40151;43.606;1.472;2022-07-17T04:17:15;3.67;;;2.17;;
54235;SDS011;40151;43.606;1.472;2022-07-17T04:19:40;3.47;;;2.08;;
54235;SDS011;40151;43.606;1.472;2022-07-17T04:22:06;3.08;;;1.80;;
54235;SDS011;40151;43.606;1.472;2022-07-17T04:24:32;2.67;;;1.77;;
54235;SDS011;40151;43.606;1.472;2022-07-17T04:26:57;3.72;;;2.25;;
54235;SDS011;40151;43.606;1.472;2022-07-17T04:29:23;2.72;;;1.92;;
54235;SDS011;40151;43.606;1.472;2022-07-17T04:31:48;3.85;;;2.00;;
54235;SDS011;40151;43.606;1.472;2022-07-17T04:34:14;3.08;;;1.90;;
54235;SDS011;40151;43.606;1.472;2022-07-17T04:36:40;3.40;;;2.10;;
54235;SDS011;40151;43.606;1.472;2022-07-17T04:39:05;2.80;;;1.85;;
54235;SDS011;40151;43.606;1.472;2022-07-17T04:41:31;3.05;;;1.95;;
54235;SDS011;40151;43.606;1.472;2022-07-17T04:43:56;3.25;;;2.30;;
54235;SDS011;40151;43.606;1.472;2022-07-17T04:46:22;2.70;;;2.03;;
54235;SDS011;40151;43.606;1.472;2022-07-17T04:48:47;3.55;;;2.15;;
54235;SDS011;40151;43.606;1.472;2022-07-17T04:51:13;3.67;;;2.13;;
54235;SDS011;40151;43.606;1.472;2022-07-17T04:53:38;3.45;;;2.10;;
54235;SDS011;40151;43.606;1.472;2022-07-17T04:56:04;2.65;;;1.90;;
54235;SDS011;40151;43.606;1.472;2022-07-17T04:58:30;2.65;;;1.95;;
54235;SDS011;40151;43.606;1.472;2022-07-17T05:00:55;3.45;;;2.25;;
54235;SDS011;40151;43.606;1.472;2022-07-17T05:03:21;2.90;;;1.98;;
54235;SDS011;40151;43.606;1.472;2022-07-17T05:05:46;2.45;;;1.77;;
54235;SDS011;40151;43.606;1.472;2022-07-17T05:08:12;3.33;;;1.88;;
54235;SDS011;40151;43.606;1.472;2022-07-17T05:10:37;4.50;;;2.10;;
54235;SDS011;40151;43.606;1.472;2022-07-17T05:13:03;3.00;;;2.05;;
54235;SDS011;40151;43.606;1.472;2022-07-17T05:15:28;2.88;;;2.00;;
54235;SDS011;40151;43.606;1.472;2022-07-17T05:17:54;3.67;;;2.10;;
54235;SDS011;40151;43.606;1.472;2022-07-17T05:20:20;2.65;;;1.92;;
54235;SDS011;40151;43.606;1.472;2022-07-17T05:22:45;3.20;;;2.15;;
54235;SDS011;40151;43.606;1.472;2022-07-17T05:25:11;3.15;;;2.00;;
54235;SDS011;40151;43.606;1.472;2022-07-17T05:27:36;3.53;;;1.90;;
54235;SDS011;40151;43.606;1.472;2022-07-17T05:30:02;3.88;;;2.00;;
54235;SDS011;40151;43.606;1.472;2022-07-17T05:32:28;3.05;;;1.90;;
54235;SDS011;40151;43.606;1.472;2022-07-17T05:34:54;3.70;;;2.00;;
54235;SDS011;40151;43.606;1.472;2022-07-17T05:37:19;3.35;;;2.17;;
54235;SDS011;40151;43.606;1.472;2022-07-17T05:39:45;4.68;;;2.08;;
54235;SDS011;40151;43.606;1.472;2022-07-17T05:42:10;3.22;;;2.00;;
54235;SDS011;40151;43.606;1.472;2022-07-17T05:44:36;3.25;;;2.28;;
54235;SDS011;40151;43.606;1.472;2022-07-17T05:47:01;2.80;;;2.22;;
54235;SDS011;40151;43.606;1.472;2022-07-17T05:49:27;3.35;;;2.35;;
54235;SDS011;40151;43.606;1.472;2022-07-17T05:51:52;2.45;;;1.75;;
54235;SDS011;40151;43.606;1.472;2022-07-17T05:54:18;2.92;;;2.10;;
54235;SDS011;40151;43.606;1.472;2022-07-17T05:56:43;3.05;;;2.00;;
54235;SDS011;40151;43.606;1.472;2022-07-17T05:59:09;3.45;;;1.92;;
54235;SDS011;40151;43.606;1.472;2022-07-17T06:01:34;3.50;;;2.30;;
54235;SDS011;40151;43.606;1.472;2022-07-17T06:04:00;2.80;;;2.10;;
54235;SDS011;40151;43.606;1.472;2022-07-17T06:06:26;3.67;;;2.05;;
54235;SDS011;40151;43.606;1.472;2022-07-17T06:08:51;3.10;;;2.10;;
54235;SDS011;40151;43.606;1.472;2022-07-17T06:11:17;3.20;;;2.10;;
54235;SDS011;40151;43.606;1.472;2022-07-17T06:13:42;3.13;;;2.25;;
54235;SDS011;40151;43.606;1.472;2022-07-17T06:16:08;2.95;;;2.05;;
54235;SDS011;40151;43.606;1.472;2022-07-17T06:18:33;3.55;;;2.40;;
54235;SDS011;40151;43.606;1.472;2022-07-17T06:20:59;3.20;;;2.20;;
54235;SDS011;40151;43.606;1.472;2022-07-17T06:23:25;3.53;;;2.22;;
54235;SDS011;40151;43.606;1.472;2022-07-17T06:25:50;4.00;;;2.20;;
54235;SDS011;40151;43.606;1.472;2022-07-17T06:28:16;3.30;;;2.47;;
54235;SDS011;40151;43.606;1.472;2022-07-17T06:30:41;2.80;;;2.00;;
54235;SDS011;40151;43.606;1.472;2022-07-17T06:33:08;3.08;;;2.13;;
54235;SDS011;40151;43.606;1.472;2022-07-17T06:35:33;4.65;;;2.63;;
54235;SDS011;40151;43.606;1.472;2022-07-17T06:37:59;3.90;;;2.10;;
54235;SDS011;40151;43.606;1.472;2022-07-17T06:40:26;3.00;;;2.10;;
54235;SDS011;40151;43.606;1.472;2022-07-17T06:42:52;3.42;;;2.17;;
54235;SDS011;40151;43.606;1.472;2022-07-17T06:45:18;2.75;;;2.10;;
54235;SDS011;40151;43.606;1.472;2022-07-17T06:47:43;3.88;;;2.60;;
54235;SDS011;40151;43.606;1.472;2022-07-17T06:50:09;2.90;;;2.13;;
54235;SDS011;40151;43.606;1.472;2022-07-17T06:52:35;3.72;;;2.50;;
54235;SDS011;40151;43.606;1.472;2022-07-17T06:55:01;2.53;;;1.83;;
54235;SDS011;40151;43.606;1.472;2022-07-17T06:57:26;2.85;;;2.00;;
54235;SDS011;40151;43.606;1.472;2022-07-17T06:59:52;3.00;;;2.13;;
54235;SDS011;40151;43.606;1.472;2022-07-17T07:02:18;2.88;;;2.13;;
54235;SDS011;40151;43.606;1.472;2022-07-17T07:04:43;4.50;;;2.33;;
54235;SDS011;40151;43.606;1.472;2022-07-17T07:07:09;3.30;;;2.22;;
54235;SDS011;40151;43.606;1.472;2022-07-17T07:09:35;3.97;;;2.40;;
54235;SDS011;40151;43.606;1.472;2022-07-17T07:12:01;3.55;;;2.30;;
54235;SDS011;40151;43.606;1.472;2022-07-17T07:14:27;4.00;;;2.72;;
54235;SDS011;40151;43.606;1.472;2022-07-17T07:16:52;4.30;;;2.50;;
54235;SDS011;40151;43.606;1.472;2022-07-17T07:19:18;3.45;;;2.30;;
54235;SDS011;40151;43.606;1.472;2022-07-17T07:21:43;4.70;;;2.50;;
54235;SDS011;40151;43.606;1.472;2022-07-17T07:24:09;3.45;;;2.50;;
54235;SDS011;40151;43.606;1.472;2022-07-17T07:26:34;3.00;;;2.15;;
54235;SDS011;40151;43.606;1.472;2022-07-17T07:29:00;3.50;;;2.47;;
54235;SDS011;40151;43.606;1.472;2022-07-17T07:31:25;3.40;;;2.65;;
54235;SDS011;40151;43.606;1.472;2022-07-17T07:33:51;4.32;;;2.50;;
54235;SDS011;40151;43.606;1.472;2022-07-17T07:36:17;3.40;;;2.38;;
54235;SDS011;40151;43.606;1.472;2022-07-17T07:38:42;3.85;;;2.67;;
54235;SDS011;40151;43.606;1.472;2022-07-17T07:41:10;4.78;;;3.00;;
54235;SDS011;40151;43.606;1.472;2022-07-17T07:43:35;5.32;;;3.00;;
54235;SDS011;40151;43.606;1.472;2022-07-17T07:46:02;3.78;;;2.78;;
54235;SDS011;40151;43.606;1.472;2022-07-17T07:48:28;4.95;;;3.17;;
54235;SDS011;40151;43.606;1.472;2022-07-17T07:50:54;3.47;;;2.88;;
54235;SDS011;40151;43.606;1.472;2022-07-17T07:53:20;4.68;;;3.30;;
54235;SDS011;40151;43.606;1.472;2022-07-17T07:55:46;4.55;;;3.00;;
54235;SDS011;40151;43.606;1.472;2022-07-17T07:58:12;3.63;;;2.80;;
54235;SDS011;40151;43.606;1.472;2022-07-17T08:00:39;4.18;;;3.10;;
54235;SDS011;40151;43.606;1.472;2022-07-17T08:03:07;4.88;;;3.22;;
54235;SDS011;40151;43.606;1.472;2022-07-17T08:05:33;4.03;;;3.13;;
54235;SDS011;40151;43.606;1.472;2022-07-17T08:07:59;4.45;;;3.30;;
54235;SDS011;40151;43.606;1.472;2022-07-17T08:10:25;5.45;;;3.65;;
54235;SDS011;40151;43.606;1.472;2022-07-17T08:12:51;4.63;;;3.45;;
54235;SDS011;40151;43.606;1.472;2022-07-17T08:15:18;4.30;;;3.25;;
54235;SDS011;40151;43.606;1.472;2022-07-17T08:17:45;4.20;;;3.20;;
54235;SDS011;40151;43.606;1.472;2022-07-17T08:20:12;4.38;;;3.10;;
54235;SDS011;40151;43.606;1.472;2022-07-17T08:22:39;4.78;;;3.28;;
54235;SDS011;40151;43.606;1.472;2022-07-17T08:25:05;4.68;;;3.33;;
54235;SDS011;40151;43.606;1.472;2022-07-17T08:27:34;4.60;;;3.50;;
54235;SDS011;40151;43.606;1.472;2022-07-17T08:30:02;4.38;;;3.45;;
54235;SDS011;40151;43.606;1.472;2022-07-17T08:32:29;4.43;;;3.45;;
54235;SDS011;40151;43.606;1.472;2022-07-17T08:34:54;4.95;;;3.60;;
54235;SDS011;40151;43.606;1.472;2022-07-17T08:37:20;5.00;;;3.50;;
54235;SDS011;40151;43.606;1.472;2022-07-17T08:39:45;4.40;;;3.47;;
54235;SDS011;40151;43.606;1.472;2022-07-17T08:42:11;4.63;;;3.45;;
54235;SDS011;40151;43.606;1.472;2022-07-17T08:44:41;4.57;;;3.53;;
54235;SDS011;40151;43.606;1.472;2022-07-17T08:47:08;5.65;;;3.40;;
54235;SDS011;40151;43.606;1.472;2022-07-17T08:49:35;4.35;;;3.30;;
54235;SDS011;40151;43.606;1.472;2022-07-17T08:52:11;4.43;;;3.50;;
54235;SDS011;40151;43.606;1.472;2022-07-17T08:54:40;4.72;;;3.03;;
54235;SDS011;40151;43.606;1.472;2022-07-17T08:57:08;4.25;;;3.20;;
54235;SDS011;40151;43.606;1.472;2022-07-17T08:59:37;4.10;;;3.22;;
54235;SDS011;40151;43.606;1.472;2022-07-17T09:02:04;4.60;;;3.20;;
54235;SDS011;40151;43.606;1.472;2022-07-17T09:04:31;5.25;;;3.08;;
54235;SDS011;40151;43.606;1.472;2022-07-17T09:07:00;5.35;;;3.55;;
54235;SDS011;40151;43.606;1.472;2022-07-17T09:09:27;4.85;;;3.40;;
54235;SDS011;40151;43.606;1.472;2022-07-17T09:11:53;3.58;;;2.97;;
54235;SDS011;40151;43.606;1.472;2022-07-17T09:14:20;4.03;;;3.15;;
54235;SDS011;40151;43.606;1.472;2022-07-17T09:16:50;4.70;;;3.70;;
54235;SDS011;40151;43.606;1.472;2022-07-17T09:20:02;4.15;;;3.15;;
54235;SDS011;40151;43.606;1.472;2022-07-17T09:24:53;4.20;;;3.30;;
54235;SDS011;40151;43.606;1.472;2022-07-17T09:29:50;4.80;;;3.50;;
54235;SDS011;40151;43.606;1.472;2022-07-17T09:32:17;4.45;;;3.47;;
54235;SDS011;40151;43.606;1.472;2022-07-17T09:34:45;4.57;;;3.40;;
54235;SDS011;40151;43.606;1.472;2022-07-17T09:37:13;5.20;;;3.10;;
54235;SDS011;40151;43.606;1.472;2022-07-17T09:39:39;6.00;;;3.38;;
54235;SDS011;40151;43.606;1.472;2022-07-17T09:42:05;4.68;;;3.33;;
54235;SDS011;40151;43.606;1.472;2022-07-17T09:44:31;4.53;;;3.28;;
54235;SDS011;40151;43.606;1.472;2022-07-17T09:46:57;5.20;;;2.88;;
54235;SDS011;40151;43.606;1.472;2022-07-17T09:49:26;3.85;;;2.95;;
54235;SDS011;40151;43.606;1.472;2022-07-17T09:51:53;4.75;;;3.40;;
54235;SDS011;40151;43.606;1.472;2022-07-17T09:54:23;4.55;;;3.40;;
54235;SDS011;40151;43.606;1.472;2022-07-17T09:56:52;4.88;;;2.97;;
54235;SDS011;40151;43.606;1.472;2022-07-17T09:59:23;4.70;;;3.58;;
54235;SDS011;40151;43.606;1.472;2022-07-17T10:01:53;4.03;;;3.03;;
54235;SDS011;40151;43.606;1.472;2022-07-17T10:04:19;4.72;;;3.00;;
54235;SDS011;40151;43.606;1.472;2022-07-17T10:06:45;3.92;;;2.92;;
54235;SDS011;40151;43.606;1.472;2022-07-17T10:09:11;4.00;;;3.22;;
54235;SDS011;40151;43.606;1.472;2022-07-17T10:11:39;3.85;;;2.97;;
54235;SDS011;40151;43.606;1.472;2022-07-17T10:14:07;4.13;;;3.25;;
54235;SDS011;40151;43.606;1.472;2022-07-17T10:16:36;4.18;;;2.90;;
54235;SDS011;40151;43.606;1.472;2022-07-17T10:19:14;4.32;;;3.20;;
54235;SDS011;40151;43.606;1.472;2022-07-17T10:22:00;3.80;;;2.88;;
54235;SDS011;40151;43.606;1.472;2022-07-17T10:24:30;4.35;;;2.92;;
54235;SDS011;40151;43.606;1.472;2022-07-17T10:26:57;3.92;;;3.13;;
54235;SDS011;40151;43.606;1.472;2022-07-17T10:29:37;4.65;;;3.22;;
54235;SDS011;40151;43.606;1.472;2022-07-17T10:32:07;3.95;;;3.10;;
54235;SDS011;40151;43.606;1.472;2022-07-17T10:34:37;3.63;;;2.90;;
54235;SDS011;40151;43.606;1.472;2022-07-17T10:39:51;4.63;;;3.25;;
54235;SDS011;40151;43.606;1.472;2022-07-17T10:42:36;4.50;;;2.95;;
54235;SDS011;40151;43.606;1.472;2022-07-17T10:47:50;4.40;;;3.15;;
54235;SDS011;40151;43.606;1.472;2022-07-17T10:50:21;4.55;;;3.00;;
54235;SDS011;40151;43.606;1.472;2022-07-17T10:53:06;4.63;;;3.08;;
54235;SDS011;40151;43.606;1.472;2022-07-17T10:55:32;4.20;;;3.08;;
54235;SDS011;40151;43.606;1.472;2022-07-17T10:57:58;6.07;;;3.05;;
54235;SDS011;40151;43.606;1.472;2022-07-17T11:00:25;3.78;;;3.05;;
54235;SDS011;40151;43.606;1.472;2022-07-17T11:02:51;4.00;;;2.90;;
54235;SDS011;40151;43.606;1.472;2022-07-17T11:05:16;3.58;;;2.85;;
54235;SDS011;40151;43.606;1.472;2022-07-17T11:07:49;3.88;;;3.10;;
54235;SDS011;40151;43.606;1.472;2022-07-17T11:10:15;4.20;;;2.95;;
54235;SDS011;40151;43.606;1.472;2022-07-17T11:12:41;3.60;;;2.60;;
54235;SDS011;40151;43.606;1.472;2022-07-17T11:15:07;3.42;;;2.75;;
54235;SDS011;40151;43.606;1.472;2022-07-17T11:17:32;4.45;;;2.97;;
54235;SDS011;40151;43.606;1.472;2022-07-17T11:19:58;3.88;;;2.70;;
54235;SDS011;40151;43.606;1.472;2022-07-17T11:22:24;3.63;;;2.75;;
54235;SDS011;40151;43.606;1.472;2022-07-17T11:24:50;3.38;;;2.55;;
54235;SDS011;40151;43.606;1.472;2022-07-17T11:27:20;4.47;;;2.90;;
54235;SDS011;40151;43.606;1.472;2022-07-17T11:29:50;3.70;;;2.90;;
54235;SDS011;40151;43.606;1.472;2022-07-17T11:32:18;5.20;;;2.95;;
54235;SDS011;40151;43.606;1.472;2022-07-17T11:34:44;5.13;;;2.97;;
54235;SDS011;40151;43.606;1.472;2022-07-17T11:37:10;4.43;;;3.00;;
54235;SDS011;40151;43.606;1.472;2022-07-17T11:39:43;3.60;;;2.60;;
54235;SDS011;40151;43.606;1.472;2022-07-17T11:42:15;3.72;;;2.83;;
54235;SDS011;40151;43.606;1.472;2022-07-17T11:44:46;3.33;;;2.60;;
54235;SDS011;40151;43.606;1.472;2022-07-17T11:47:19;3.40;;;2.60;;
54235;SDS011;40151;43.606;1.472;2022-07-17T11:49:51;3.67;;;2.60;;
54235;SDS011;40151;43.606;1.472;2022-07-17T11:52:28;3.65;;;2.50;;
54235;SDS011;40151;43.606;1.472;2022-07-17T11:57:29;3.42;;;2.78;;
54235;SDS011;40151;43.606;1.472;2022-07-17T12:00:09;3.65;;;2.60;;
54235;SDS011;40151;43.606;1.472;2022-07-17T12:02:35;3.30;;;2.47;;
54235;SDS011;40151;43.606;1.472;2022-07-17T12:05:01;4.50;;;2.47;;
54235;SDS011;40151;43.606;1.472;2022-07-17T12:07:27;3.67;;;2.42;;
54235;SDS011;40151;43.606;1.472;2022-07-17T12:10:14;3.65;;;2.55;;
54235;SDS011;40151;43.606;1.472;2022-07-17T12:12:51;3.28;;;2.20;;
54235;SDS011;40151;43.606;1.472;2022-07-17T12:17:42;4.03;;;2.80;;
54235;SDS011;40151;43.606;1.472;2022-07-17T12:20:08;3.40;;;2.50;;
54235;SDS011;40151;43.606;1.472;2022-07-17T12:22:44;3.75;;;2.80;;
54235;SDS011;40151;43.606;1.472;2022-07-17T12:25:32;3.15;;;2.30;;
54235;SDS011;40151;43.606;1.472;2022-07-17T12:27:57;3.53;;;2.17;;
54235;SDS011;40151;43.606;1.472;2022-07-17T12:30:22;3.50;;;2.40;;
54235;SDS011;40151;43.606;1.472;2022-07-17T12:32:48;3.65;;;2.80;;
54235;SDS011;40151;43.606;1.472;2022-07-17T12:35:14;3.42;;;2.85;;
54235;SDS011;40151;43.606;1.472;2022-07-17T12:37:40;5.03;;;2.72;;
54235;SDS011;40151;43.606;1.472;2022-07-17T12:40:06;2.88;;;2.15;;
54235;SDS011;40151;43.606;1.472;2022-07-17T12:42:32;2.95;;;2.38;;
54235;SDS011;40151;43.606;1.472;2022-07-17T12:44:58;2.97;;;2.10;;
54235;SDS011;40151;43.606;1.472;2022-07-17T12:47:23;3.40;;;2.38;;
54235;SDS011;40151;43.606;1.472;2022-07-17T12:49:49;3.72;;;2.40;;
54235;SDS011;40151;43.606;1.472;2022-07-17T12:52:14;4.10;;;3.08;;
54235;SDS011;40151;43.606;1.472;2022-07-17T12:54:40;3.00;;;2.25;;
54235;SDS011;40151;43.606;1.472;2022-07-17T12:57:06;3.78;;;2.60;;
54235;SDS011;40151;43.606;1.472;2022-07-17T12:59:32;3.05;;;2.33;;
54235;SDS011;40151;43.606;1.472;2022-07-17T13:01:58;3.20;;;2.20;;
54235;SDS011;40151;43.606;1.472;2022-07-17T13:04:24;3.22;;;2.33;;
54235;SDS011;40151;43.606;1.472;2022-07-17T13:06:49;3.17;;;2.30;;
54235;SDS011;40151;43.606;1.472;2022-07-17T13:09:15;3.35;;;2.50;;
54235;SDS011;40151;43.606;1.472;2022-07-17T13:11:41;3.30;;;2.30;;
54235;SDS011;40151;43.606;1.472;2022-07-17T13:14:07;3.50;;;2.50;;
54235;SDS011;40151;43.606;1.472;2022-07-17T13:16:37;3.28;;;2.25;;
54235;SDS011;40151;43.606;1.472;2022-07-17T13:19:03;3.03;;;2.05;;
54235;SDS011;40151;43.606;1.472;2022-07-17T13:21:30;3.10;;;2.20;;
54235;SDS011;40151;43.606;1.472;2022-07-17T13:23:55;2.97;;;2.22;;
54235;SDS011;40151;43.606;1.472;2022-07-17T13:26:21;3.22;;;2.60;;
54235;SDS011;40151;43.606;1.472;2022-07-17T13:28:47;3.05;;;2.10;;
54235;SDS011;40151;43.606;1.472;2022-07-17T13:31:12;3.63;;;2.20;;
54235;SDS011;40151;43.606;1.472;2022-07-17T13:33:38;2.78;;;2.40;;
54235;SDS011;40151;43.606;1.472;2022-07-17T13:36:04;3.38;;;2.30;;
54235;SDS011;40151;43.606;1.472;2022-07-17T13:38:30;2.83;;;2.33;;
54235;SDS011;40151;43.606;1.472;2022-07-17T13:40:55;2.50;;;2.00;;
54235;SDS011;40151;43.606;1.472;2022-07-17T13:43:21;3.20;;;2.38;;
54235;SDS011;40151;43.606;1.472;2022-07-17T13:45:47;2.53;;;1.98;;
54235;SDS011;40151;43.606;1.472;2022-07-17T13:48:12;2.63;;;1.90;;
54235;SDS011;40151;43.606;1.472;2022-07-17T13:50:40;2.85;;;2.17;;
54235;SDS011;40151;43.606;1.472;2022-07-17T13:53:06;2.90;;;2.20;;
54235;SDS011;40151;43.606;1.472;2022-07-17T13:55:32;3.67;;;2.47;;
54235;SDS011;40151;43.606;1.472;2022-07-17T13:57:58;2.58;;;2.08;;
54235;SDS011;40151;43.606;1.472;2022-07-17T14:00:24;2.55;;;2.05;;
54235;SDS011;40151;43.606;1.472;2022-07-17T14:02:50;2.83;;;2.03;;
54235;SDS011;40151;43.606;1.472;2022-07-17T14:05:16;2.85;;;2.15;;
54235;SDS011;40151;43.606;1.472;2022-07-17T14:07:42;3.10;;;2.28;;
54235;SDS011;40151;43.606;1.472;2022-07-17T14:10:08;3.00;;;2.10;;
54235;SDS011;40151;43.606;1.472;2022-07-17T14:12:35;2.50;;;1.90;;
54235;SDS011;40151;43.606;1.472;2022-07-17T14:15:01;2.83;;;2.33;;
54235;SDS011;40151;43.606;1.472;2022-07-17T14:17:28;3.28;;;2.20;;
54235;SDS011;40151;43.606;1.472;2022-07-17T14:19:54;2.88;;;2.08;;
54235;SDS011;40151;43.606;1.472;2022-07-17T14:22:19;2.72;;;1.92;;
54235;SDS011;40151;43.606;1.472;2022-07-17T14:24:45;3.03;;;2.00;;
54235;SDS011;40151;43.606;1.472;2022-07-17T14:27:10;2.17;;;1.70;;
54235;SDS011;40151;43.606;1.472;2022-07-17T14:29:36;2.90;;;2.13;;
54235;SDS011;40151;43.606;1.472;2022-07-17T14:32:02;3.30;;;1.95;;
54235;SDS011;40151;43.606;1.472;2022-07-17T14:34:27;2.78;;;1.98;;
54235;SDS011;40151;43.606;1.472;2022-07-17T14:36:53;3.03;;;2.08;;
54235;SDS011;40151;43.606;1.472;2022-07-17T14:39:19;2.72;;;2.13;;
54235;SDS011;40151;43.606;1.472;2022-07-17T14:41:44;3.45;;;1.98;;
54235;SDS011;40151;43.606;1.472;2022-07-17T14:44:14;4.13;;;2.03;;
54235;SDS011;40151;43.606;1.472;2022-07-17T14:46:39;2.60;;;1.90;;
54235;SDS011;40151;43.606;1.472;2022-07-17T14:49:05;1.95;;;1.55;;
54235;SDS011;40151;43.606;1.472;2022-07-17T14:51:30;4.00;;;1.90;;
54235;SDS011;40151;43.606;1.472;2022-07-17T14:53:56;4.43;;;2.08;;
54235;SDS011;40151;43.606;1.472;2022-07-17T14:56:21;2.28;;;1.80;;
54235;SDS011;40151;43.606;1.472;2022-07-17T14:58:47;1.92;;;1.73;;
54235;SDS011;40151;43.606;1.472;2022-07-17T15:01:13;2.55;;;1.90;;
54235;SDS011;40151;43.606;1.472;2022-07-17T15:03:38;2.72;;;2.05;;